Airports

 

 

Airport Name Latest METAR Visual Conditions
Atlantic City Int. (ACY) KACY 241954Z 28009G17KT 10SM CLR 24/05 A2978 RMK AO2 SLP083 T02390050 VFR
Baltimore International Airport (BWI) KBWI 241954Z 27007G19KT 10SM FEW130 SCT170 BKN250 24/03 A2982 RMK AO2 SLP097 T02390033 VFR
Washington National Airport (DCA) KDCA 241952Z 34008KT 10SM BKN250 25/04 A2984 RMK AO2 SLP103 T02500039 VFR
Dulles International Airport (IAD) KIAD 241952Z 26006KT 10SM SCT120 BKN250 23/06 A2984 RMK AO2 SLP102 T02330056 VFR
Norfolk International Airport (ORF) KORF 241951Z 02013KT 10SM CLR 24/15 A2981 RMK AO2 SLP095 T02390150 VFR
Raleigh International Airport (RDU) KRDU 241951Z 24006KT 10SM FEW075 FEW180 BKN250 28/09 A2987 RMK AO2 SLP109 T02830094 VFR
Richmond International Airport (RIC) KRIC 241954Z 28012G17KT 10SM FEW065 SCT150 BKN300 28/12 A2982 RMK AO2 SLP102 T02830122 VFR
Roanoke Regional Airport (ROA) KROA 241954Z 27008KT 10SM BKN070 28/12 A2990 RMK AO2 SLP112 T02780117 VFR